Time;durP1;ratioP1;P1;durP2;ratioP2;P2;SDS_P1;SDS_P2;PMS_P1;PMS_P2;Temp;Humidity;BMP_temperature;BMP_pressure;BME280_temperature;BME280_humidity;BME280_pressure;Samples;Min_cycle;Max_cycle;Signal;HPM_P1;HPM_P2
2024/01/14 00:00:32;;;;;;;11.88;7.80;;;;;;;;;;4997177;28;20161;-77
2024/01/14 00:02:57;;;;;;;10.73;6.78;;;;;;;;;;4975870;28;20377;-78
2024/01/14 00:05:23;;;;;;;11.32;7.00;;;;;;;;;;4995826;28;20165;-77
2024/01/14 00:07:48;;;;;;;11.45;7.50;;;;;;;;;;4995744;28;20026;-78
2024/01/14 00:10:13;;;;;;;11.82;8.20;;;;;;;;;;4999153;28;20022;-78
2024/01/14 00:12:38;;;;;;;12.48;7.30;;;;;;;;;;4998397;28;20755;-78
2024/01/14 00:15:04;;;;;;;11.80;7.00;;;;;;;;;;4995436;28;20034;-78
2024/01/14 00:17:29;;;;;;;11.05;6.72;;;;;;;;;;4980350;28;20483;-78
2024/01/14 00:19:55;;;;;;;11.85;6.80;;;;;;;;;;4974978;28;20070;-78
2024/01/14 00:22:20;;;;;;;11.73;7.38;;;;;;;;;;4995420;28;20034;-77
2024/01/14 00:24:45;;;;;;;11.38;7.00;;;;;;;;;;4995765;28;20112;-78
2024/01/14 00:27:10;;;;;;;11.32;7.07;;;;;;;;;;4997303;28;20034;-78
2024/01/14 00:29:36;;;;;;;11.23;6.60;;;;;;;;;;4995762;28;20030;-77
2024/01/14 00:32:02;;;;;;;10.13;6.50;;;;;;;;;;4968952;28;20065;-77
2024/01/14 00:34:27;;;;;;;10.45;6.30;;;;;;;;;;4975665;28;20034;-78
2024/01/14 00:36:52;;;;;;;11.80;6.68;;;;;;;;;;4995562;28;20403;-78
2024/01/14 00:39:17;;;;;;;9.50;6.13;;;;;;;;;;4982072;28;20057;-79
2024/01/14 00:41:43;;;;;;;13.35;7.75;;;;;;;;;;5006534;28;20092;-79
2024/01/14 00:44:08;;;;;;;10.48;6.50;;;;;;;;;;4999539;28;20023;-79
2024/01/14 00:46:33;;;;;;;10.45;6.78;;;;;;;;;;4999644;28;20077;-77
2024/01/14 00:48:58;;;;;;;11.02;6.65;;;;;;;;;;5000465;28;20026;-79
2024/01/14 00:51:23;;;;;;;9.90;5.65;;;;;;;;;;4982923;28;20049;-77
2024/01/14 00:53:48;;;;;;;9.43;6.38;;;;;;;;;;4980593;28;20026;-78
2024/01/14 00:56:14;;;;;;;11.35;7.07;;;;;;;;;;4984420;28;20033;-78
2024/01/14 00:58:39;;;;;;;11.48;6.88;;;;;;;;;;5002014;28;20656;-78
2024/01/14 01:01:04;;;;;;;9.93;6.20;;;;;;;;;;5000201;28;20031;-78
2024/01/14 01:03:29;;;;;;;10.30;6.20;;;;;;;;;;4995789;28;20064;-77
2024/01/14 01:05:54;;;;;;;9.77;6.47;;;;;;;;;;4983922;28;20041;-79
2024/01/14 01:08:20;;;;;;;10.80;6.45;;;;;;;;;;4982393;28;20555;-79
2024/01/14 01:10:45;;;;;;;11.85;7.50;;;;;;;;;;5002248;28;20027;-77
2024/01/14 01:13:10;;;;;;;10.07;6.60;;;;;;;;;;5002087;28;20117;-79
2024/01/14 01:15:35;;;;;;;10.23;6.68;;;;;;;;;;4997136;28;20037;-78
2024/01/14 01:18:00;;;;;;;10.27;6.50;;;;;;;;;;4997784;28;20450;-78
2024/01/14 01:20:26;;;;;;;10.73;7.03;;;;;;;;;;4996997;28;20105;-78
2024/01/14 01:22:51;;;;;;;10.10;6.53;;;;;;;;;;5000759;28;20422;-78
2024/01/14 01:25:16;;;;;;;10.48;6.82;;;;;;;;;;4980669;28;20380;-77
2024/01/14 01:27:41;;;;;;;9.32;5.93;;;;;;;;;;5001554;28;20065;-78
2024/01/14 01:30:07;;;;;;;10.02;6.50;;;;;;;;;;4978100;28;20042;-77
2024/01/14 01:32:32;;;;;;;10.05;5.72;;;;;;;;;;4995982;28;20034;-77
2024/01/14 01:34:57;;;;;;;10.88;6.22;;;;;;;;;;4998875;28;20038;-77
2024/01/14 01:37:22;;;;;;;10.25;7.03;;;;;;;;;;4999929;28;20088;-77
2024/01/14 01:39:47;;;;;;;11.30;6.40;;;;;;;;;;4985914;28;20414;-79
2024/01/14 01:42:12;;;;;;;10.05;6.47;;;;;;;;;;4976565;28;20038;-79
2024/01/14 01:44:38;;;;;;;10.35;6.45;;;;;;;;;;4997497;28;20026;-78
2024/01/14 01:47:03;;;;;;;10.35;6.72;;;;;;;;;;4999639;28;20045;-78
2024/01/14 01:49:29;;;;;;;10.77;6.80;;;;;;;;;;4986951;28;20172;-78
2024/01/14 01:51:55;;;;;;;11.30;7.10;;;;;;;;;;5000632;28;20057;-80
2024/01/14 01:54:21;;;;;;;11.52;6.95;;;;;;;;;;4999676;28;20022;-78
2024/01/14 01:56:47;;;;;;;10.20;6.90;;;;;;;;;;5000741;28;20494;-78
2024/01/14 01:59:12;;;;;;;10.77;6.47;;;;;;;;;;4997516;28;20049;-78
2024/01/14 02:01:37;;;;;;;9.77;6.95;;;;;;;;;;4980385;28;20025;-78
2024/01/14 02:04:02;;;;;;;10.90;6.60;;;;;;;;;;4983002;28;20479;-78
2024/01/14 02:06:28;;;;;;;12.15;7.40;;;;;;;;;;4983599;28;20029;-79
2024/01/14 02:08:53;;;;;;;11.38;6.90;;;;;;;;;;5003845;28;20069;-79
2024/01/14 02:11:19;;;;;;;10.65;6.38;;;;;;;;;;4994221;28;20026;-78
2024/01/14 02:13:44;;;;;;;11.93;7.28;;;;;;;;;;4995075;28;20442;-79
2024/01/14 02:16:10;;;;;;;12.45;8.13;;;;;;;;;;4983525;28;20129;-79
2024/01/14 02:18:35;;;;;;;11.88;7.30;;;;;;;;;;4999160;28;20058;-78
2024/01/14 02:21:00;;;;;;;11.25;7.07;;;;;;;;;;4981906;28;20034;-78
2024/01/14 02:23:27;;;;;;;13.32;7.88;;;;;;;;;;4999490;28;20460;-77
2024/01/14 02:25:53;;;;;;;10.48;7.13;;;;;;;;;;4980571;28;20048;-78
2024/01/14 02:28:20;;;;;;;11.25;7.60;;;;;;;;;;4982993;28;20105;-78
2024/01/14 02:30:45;;;;;;;12.35;7.50;;;;;;;;;;4980881;28;20042;-78
2024/01/14 02:33:10;;;;;;;13.00;8.13;;;;;;;;;;4981118;28;20085;-78
2024/01/14 02:35:36;;;;;;;13.00;7.95;;;;;;;;;;4980543;28;20054;-77
2024/01/14 02:38:01;;;;;;;11.60;7.28;;;;;;;;;;4981737;28;20038;-78
2024/01/14 02:40:26;;;;;;;11.43;7.25;;;;;;;;;;4983695;28;20038;-78
2024/01/14 02:42:51;;;;;;;11.70;7.22;;;;;;;;;;4983315;28;20065;-79
2024/01/14 02:45:18;;;;;;;11.52;7.85;;;;;;;;;;4984111;28;20061;-79
2024/01/14 02:47:43;;;;;;;14.55;7.90;;;;;;;;;;5001496;28;20027;-79
2024/01/14 02:50:08;;;;;;;11.32;6.78;;;;;;;;;;4991842;28;20057;-78
2024/01/14 02:52:33;;;;;;;10.98;6.90;;;;;;;;;;4976817;28;20066;-78
2024/01/14 02:54:59;;;;;;;13.25;7.93;;;;;;;;;;4994323;28;20038;-78
2024/01/14 02:57:24;;;;;;;12.32;7.57;;;;;;;;;;4997819;28;20034;-78
2024/01/14 02:59:49;;;;;;;12.60;8.18;;;;;;;;;;4999267;28;20050;-78
2024/01/14 03:02:14;;;;;;;15.35;8.82;;;;;;;;;;4998625;28;20029;-78
2024/01/14 03:04:40;;;;;;;14.05;8.63;;;;;;;;;;5001396;28;20045;-78
2024/01/14 03:07:05;;;;;;;12.43;7.90;;;;;;;;;;4981956;28;20037;-78
2024/01/14 03:09:30;;;;;;;12.40;7.60;;;;;;;;;;4983978;28;20162;-78
2024/01/14 03:11:55;;;;;;;10.95;7.50;;;;;;;;;;4997444;28;20121;-78
2024/01/14 03:14:20;;;;;;;12.43;7.22;;;;;;;;;;4979007;28;20034;-78
2024/01/14 03:16:45;;;;;;;13.77;7.70;;;;;;;;;;4980976;28;20105;-78
2024/01/14 03:19:11;;;;;;;15.35;7.60;;;;;;;;;;4973392;28;20126;-77
2024/01/14 03:21:36;;;;;;;13.80;7.93;;;;;;;;;;4977476;28;20033;-78
2024/01/14 03:24:01;;;;;;;14.60;8.02;;;;;;;;;;4994968;28;20038;-78
2024/01/14 03:26:26;;;;;;;13.38;7.90;;;;;;;;;;4994092;28;20088;-78
2024/01/14 03:28:51;;;;;;;12.77;8.07;;;;;;;;;;4998601;28;20038;-78
2024/01/14 03:31:17;;;;;;;12.60;7.90;;;;;;;;;;4998647;28;20030;-78
2024/01/14 03:33:43;;;;;;;13.07;7.38;;;;;;;;;;4996234;28;20113;-78
2024/01/14 03:36:11;;;;;;;13.02;7.45;;;;;;;;;;4996220;28;20084;-77
2024/01/14 03:38:36;;;;;;;13.43;7.63;;;;;;;;;;4993631;28;20026;-78
2024/01/14 03:41:01;;;;;;;12.05;8.00;;;;;;;;;;4995944;28;20540;-78
2024/01/14 03:43:26;;;;;;;11.88;6.88;;;;;;;;;;4983386;28;20040;-78
2024/01/14 03:45:51;;;;;;;14.35;8.65;;;;;;;;;;4984176;28;20034;-78
2024/01/14 03:48:17;;;;;;;13.38;7.32;;;;;;;;;;4982259;28;20026;-79
2024/01/14 03:50:42;;;;;;;13.48;7.72;;;;;;;;;;4995145;28;20042;-78
2024/01/14 03:53:07;;;;;;;12.68;7.97;;;;;;;;;;4998077;28;20034;-79
2024/01/14 03:55:32;;;;;;;12.30;7.38;;;;;;;;;;4986397;28;20045;-77
2024/01/14 03:57:58;;;;;;;12.95;7.68;;;;;;;;;;4981267;28;20018;-78
2024/01/14 04:00:23;;;;;;;13.07;7.18;;;;;;;;;;4981802;28;20499;-78
2024/01/14 04:02:48;;;;;;;12.93;7.75;;;;;;;;;;4984183;28;20030;-78
2024/01/14 04:05:14;;;;;;;12.73;7.30;;;;;;;;;;4999844;28;20041;-79
2024/01/14 04:07:39;;;;;;;14.60;7.57;;;;;;;;;;4978186;28;20084;-78
2024/01/14 04:10:04;;;;;;;10.40;6.03;;;;;;;;;;4980945;28;20033;-78
2024/01/14 04:12:29;;;;;;;11.32;6.88;;;;;;;;;;4990857;28;20061;-79
2024/01/14 04:14:54;;;;;;;9.20;5.97;;;;;;;;;;4994381;28;20542;-78
2024/01/14 04:17:20;;;;;;;12.63;6.60;;;;;;;;;;4982299;28;20037;-77
2024/01/14 04:19:45;;;;;;;11.15;6.40;;;;;;;;;;4982353;28;20033;-77
2024/01/14 04:22:10;;;;;;;11.45;7.22;;;;;;;;;;5002510;28;20053;-77
2024/01/14 04:24:35;;;;;;;10.57;6.25;;;;;;;;;;5000241;28;20030;-77
2024/01/14 04:27:00;;;;;;;12.55;6.28;;;;;;;;;;4979084;28;20030;-77
2024/01/14 04:29:26;;;;;;;11.05;6.55;;;;;;;;;;4980761;28;20034;-76
2024/01/14 04:31:51;;;;;;;10.73;6.25;;;;;;;;;;4996486;28;20070;-77
2024/01/14 04:34:16;;;;;;;10.75;6.68;;;;;;;;;;4998138;28;20119;-77
2024/01/14 04:36:48;;;;;;;10.90;6.60;;;;;;;;;;4999211;28;20046;-76
2024/01/14 04:39:13;;;;;;;10.93;6.07;;;;;;;;;;4996869;28;20431;-77
2024/01/14 04:41:38;;;;;;;9.10;5.88;;;;;;;;;;5004338;28;20057;-76
2024/01/14 04:44:03;;;;;;;11.50;6.20;;;;;;;;;;4994904;28;20034;-77
2024/01/14 04:46:28;;;;;;;10.82;6.22;;;;;;;;;;4996430;28;20042;-77
2024/01/14 04:48:54;;;;;;;11.23;6.47;;;;;;;;;;4998706;28;20037;-76
2024/01/14 04:51:19;;;;;;;11.05;6.53;;;;;;;;;;5000162;28;20034;-76
2024/01/14 04:53:44;;;;;;;11.52;7.18;;;;;;;;;;5000639;28;20120;-76
2024/01/14 04:56:10;;;;;;;11.15;6.25;;;;;;;;;;4999503;28;20062;-76
2024/01/14 04:58:35;;;;;;;11.85;6.95;;;;;;;;;;4978422;28;20034;-76
2024/01/14 05:01:00;;;;;;;12.43;7.28;;;;;;;;;;4997938;28;20038;-76
2024/01/14 05:03:25;;;;;;;13.02;6.65;;;;;;;;;;4999506;28;20491;-76
2024/01/14 05:05:50;;;;;;;12.25;7.63;;;;;;;;;;4999108;28;20045;-75
2024/01/14 05:08:16;;;;;;;13.35;7.75;;;;;;;;;;5000722;28;20441;-75
2024/01/14 05:10:41;;;;;;;14.60;7.80;;;;;;;;;;5001354;28;20069;-75
2024/01/14 05:13:07;;;;;;;12.35;7.78;;;;;;;;;;4995508;28;20388;-75
2024/01/14 05:15:32;;;;;;;12.40;7.43;;;;;;;;;;4996513;28;20042;-75
2024/01/14 05:17:57;;;;;;;14.00;7.60;;;;;;;;;;5001897;28;20038;-75
2024/01/14 05:20:22;;;;;;;14.55;8.00;;;;;;;;;;4998647;28;20057;-75
2024/01/14 05:22:48;;;;;;;12.65;7.22;;;;;;;;;;4996430;28;20054;-75
2024/01/14 05:25:13;;;;;;;15.00;7.88;;;;;;;;;;4999145;28;20029;-75
2024/01/14 05:27:38;;;;;;;13.70;7.82;;;;;;;;;;4995276;28;20042;-74
2024/01/14 05:30:04;;;;;;;17.50;9.45;;;;;;;;;;4982097;28;20030;-74
2024/01/14 05:32:29;;;;;;;15.25;9.02;;;;;;;;;;5000957;28;20045;-74
2024/01/14 05:34:54;;;;;;;17.10;10.18;;;;;;;;;;5001557;28;20506;-74
2024/01/14 05:37:20;;;;;;;15.43;9.25;;;;;;;;;;4997095;28;20033;-75
2024/01/14 05:39:45;;;;;;;15.65;8.80;;;;;;;;;;4996962;28;20034;-75
2024/01/14 05:42:10;;;;;;;17.50;9.45;;;;;;;;;;4998565;28;20049;-76
2024/01/14 05:44:35;;;;;;;15.10;9.10;;;;;;;;;;4996426;28;20056;-75
2024/01/14 05:47:01;;;;;;;14.82;9.23;;;;;;;;;;5000331;28;20044;-76
2024/01/14 05:49:26;;;;;;;15.05;9.05;;;;;;;;;;4998169;28;20037;-76
2024/01/14 05:51:51;;;;;;;15.48;8.63;;;;;;;;;;5004188;28;20136;-75
2024/01/14 05:54:16;;;;;;;17.00;9.93;;;;;;;;;;4993980;28;20160;-76
2024/01/14 05:56:42;;;;;;;17.85;9.77;;;;;;;;;;4995342;28;20034;-75
2024/01/14 05:59:07;;;;;;;13.25;8.43;;;;;;;;;;4998963;28;20030;-75
2024/01/14 06:01:32;;;;;;;15.38;7.80;;;;;;;;;;4999877;28;20037;-75
2024/01/14 06:03:57;;;;;;;12.75;7.70;;;;;;;;;;4999853;28;20053;-75
2024/01/14 06:06:22;;;;;;;14.63;8.20;;;;;;;;;;4996913;28;20030;-73
2024/01/14 06:08:48;;;;;;;17.55;9.15;;;;;;;;;;4993474;28;20042;-73
2024/01/14 06:11:13;;;;;;;14.30;8.07;;;;;;;;;;4997007;28;20038;-73
2024/01/14 06:13:44;;;;;;;12.95;7.43;;;;;;;;;;4998622;28;20116;-73
2024/01/14 06:16:09;;;;;;;10.40;6.50;;;;;;;;;;4993798;28;20546;-73
2024/01/14 06:18:34;;;;;;;11.70;6.60;;;;;;;;;;4985726;28;20033;-74
2024/01/14 06:21:00;;;;;;;12.52;7.18;;;;;;;;;;4993278;28;20101;-73
2024/01/14 06:23:26;;;;;;;12.38;6.95;;;;;;;;;;4997002;28;20529;-73
2024/01/14 06:25:51;;;;;;;12.63;7.35;;;;;;;;;;4996084;28;20030;-76
2024/01/14 06:28:16;;;;;;;12.70;7.03;;;;;;;;;;4997810;28;20030;-76
2024/01/14 06:30:41;;;;;;;13.13;8.35;;;;;;;;;;4999342;28;20116;-76
2024/01/14 06:33:07;;;;;;;12.18;7.63;;;;;;;;;;4981622;28;20040;-76
2024/01/14 06:35:32;;;;;;;12.80;7.63;;;;;;;;;;4993002;28;20038;-76
2024/01/14 06:37:57;;;;;;;14.68;8.18;;;;;;;;;;4993545;28;20030;-76
2024/01/14 06:40:22;;;;;;;12.63;6.90;;;;;;;;;;4995147;28;20042;-76
2024/01/14 06:42:47;;;;;;;12.05;7.45;;;;;;;;;;4999122;28;20069;-75
2024/01/14 06:45:13;;;;;;;11.57;6.68;;;;;;;;;;4999900;28;20041;-76
2024/01/14 06:47:39;;;;;;;11.52;7.30;;;;;;;;;;4997136;28;20030;-76
2024/01/14 06:50:05;;;;;;;11.95;6.93;;;;;;;;;;4993223;28;20030;-76
2024/01/14 06:52:30;;;;;;;15.13;8.00;;;;;;;;;;4996653;28;20038;-77
2024/01/14 06:54:55;;;;;;;12.20;7.47;;;;;;;;;;4996935;28;20050;-77
2024/01/14 06:57:20;;;;;;;14.55;8.15;;;;;;;;;;4979023;28;20053;-77
2024/01/14 06:59:45;;;;;;;15.70;8.43;;;;;;;;;;4990128;28;20558;-77
2024/01/14 07:02:14;;;;;;;15.45;8.90;;;;;;;;;;5001754;28;20036;-78
2024/01/14 07:04:39;;;;;;;14.13;7.97;;;;;;;;;;4994236;28;20509;-77
2024/01/14 07:07:05;;;;;;;16.73;9.00;;;;;;;;;;4978350;28;20034;-78
2024/01/14 07:09:30;;;;;;;14.68;8.57;;;;;;;;;;4987355;28;20030;-78
2024/01/14 07:11:55;;;;;;;14.60;8.75;;;;;;;;;;4980012;28;20035;-77
2024/01/14 07:14:22;;;;;;;15.65;8.45;;;;;;;;;;4998254;28;20462;-77
2024/01/14 07:16:47;;;;;;;14.80;8.07;;;;;;;;;;4978711;28;20510;-77
2024/01/14 07:19:12;;;;;;;16.38;9.30;;;;;;;;;;4994608;28;20034;-78
2024/01/14 07:21:37;;;;;;;16.60;9.68;;;;;;;;;;4998010;28;20372;-77
2024/01/14 07:24:03;;;;;;;16.42;9.77;;;;;;;;;;4982145;28;20058;-77
2024/01/14 07:26:28;;;;;;;18.13;9.73;;;;;;;;;;4999818;28;20022;-77
2024/01/14 07:28:53;;;;;;;13.98;8.50;;;;;;;;;;4987145;28;20045;-77
2024/01/14 07:31:21;;;;;;;17.88;9.68;;;;;;;;;;4977454;28;20037;-78
2024/01/14 07:33:52;;;;;;;18.80;11.00;;;;;;;;;;5001614;28;20045;-78
2024/01/14 07:36:18;;;;;;;17.17;8.93;;;;;;;;;;4992541;28;20098;-78
2024/01/14 07:38:43;;;;;;;16.38;9.38;;;;;;;;;;4982564;28;20818;-82
2024/01/14 07:41:10;;;;;;;15.85;8.73;;;;;;;;;;4977100;28;20037;-78
2024/01/14 07:43:35;;;;;;;15.32;8.52;;;;;;;;;;4999218;28;20030;-76
2024/01/14 07:46:00;;;;;;;13.02;8.02;;;;;;;;;;4995899;28;20045;-76
2024/01/14 07:48:26;;;;;;;18.55;10.18;;;;;;;;;;4992743;28;20670;-75
2024/01/14 07:50:53;;;;;;;16.63;9.73;;;;;;;;;;4996027;28;20478;-76
2024/01/14 07:53:18;;;;;;;14.07;8.35;;;;;;;;;;4997347;28;20022;-76
2024/01/14 07:55:43;;;;;;;14.27;8.30;;;;;;;;;;4997786;28;20088;-76
2024/01/14 07:58:11;;;;;;;15.20;8.23;;;;;;;;;;4994909;28;20038;-76
2024/01/14 08:00:36;;;;;;;14.55;8.30;;;;;;;;;;4982976;28;20113;-76
2024/01/14 08:03:01;;;;;;;13.10;7.60;;;;;;;;;;4997613;28;20121;-76
2024/01/14 08:05:27;;;;;;;15.93;8.60;;;;;;;;;;4996932;28;20088;-76
2024/01/14 08:07:52;;;;;;;15.13;9.00;;;;;;;;;;4998617;28;20146;-76
2024/01/14 08:10:17;;;;;;;15.60;8.30;;;;;;;;;;4981430;28;20033;-76
2024/01/14 08:12:42;;;;;;;13.70;8.07;;;;;;;;;;4998220;28;20038;-76
2024/01/14 08:15:07;;;;;;;14.05;8.15;;;;;;;;;;4993808;28;20493;-76
2024/01/14 08:17:32;;;;;;;12.80;7.05;;;;;;;;;;4994813;28;20034;-76
2024/01/14 08:19:58;;;;;;;13.68;7.13;;;;;;;;;;4997297;28;20066;-75
2024/01/14 08:22:23;;;;;;;15.00;8.10;;;;;;;;;;4996924;28;20026;-75
2024/01/14 08:24:48;;;;;;;15.07;7.72;;;;;;;;;;4997767;28;20506;-75
2024/01/14 08:27:15;;;;;;;15.82;8.52;;;;;;;;;;4977162;28;20119;-75
2024/01/14 08:29:40;;;;;;;13.32;7.80;;;;;;;;;;4994071;28;20073;-75
2024/01/14 08:32:05;;;;;;;13.60;7.88;;;;;;;;;;4994070;28;20065;-77
2024/01/14 08:34:31;;;;;;;12.93;7.55;;;;;;;;;;4994446;28;20042;-75
2024/01/14 08:36:56;;;;;;;14.38;7.75;;;;;;;;;;4985465;28;20045;-76
2024/01/14 08:39:21;;;;;;;13.68;8.02;;;;;;;;;;4994710;28;20523;-75
2024/01/14 08:41:46;;;;;;;13.52;7.93;;;;;;;;;;5000812;28;20030;-75
2024/01/14 08:44:14;;;;;;;14.02;8.75;;;;;;;;;;4998167;28;20551;-75
2024/01/14 08:46:39;;;;;;;14.70;7.53;;;;;;;;;;4996955;28;20302;-74
2024/01/14 08:49:04;;;;;;;14.27;8.05;;;;;;;;;;4996976;28;20042;-74
2024/01/14 08:51:30;;;;;;;14.15;8.38;;;;;;;;;;4999412;28;20056;-74
2024/01/14 08:54:00;;;;;;;13.48;7.47;;;;;;;;;;5000888;28;20042;-73
2024/01/14 08:56:25;;;;;;;12.60;7.45;;;;;;;;;;4976027;28;20038;-75
2024/01/14 08:58:51;;;;;;;13.55;8.15;;;;;;;;;;4995074;28;20498;-75
2024/01/14 09:01:17;;;;;;;14.02;8.27;;;;;;;;;;5002859;28;20487;-74
2024/01/14 09:03:43;;;;;;;12.15;7.47;;;;;;;;;;5004225;28;20145;-75
2024/01/14 09:06:09;;;;;;;14.05;8.90;;;;;;;;;;5001127;28;20451;-75
2024/01/14 09:08:34;;;;;;;13.85;7.00;;;;;;;;;;5001840;28;20109;-75
2024/01/14 09:11:00;;;;;;;15.82;8.95;;;;;;;;;;5003800;28;20121;-74
2024/01/14 09:13:25;;;;;;;12.65;7.28;;;;;;;;;;4978537;28;20046;-74
2024/01/14 09:15:50;;;;;;;22.17;8.38;;;;;;;;;;5003774;28;20061;-75
2024/01/14 09:18:16;;;;;;;14.07;8.07;;;;;;;;;;5000693;28;20034;-74
2024/01/14 09:20:41;;;;;;;11.95;6.70;;;;;;;;;;5001210;28;20042;-74
2024/01/14 09:23:07;;;;;;;12.32;7.40;;;;;;;;;;5002846;28;20100;-75
2024/01/14 09:25:32;;;;;;;13.52;7.30;;;;;;;;;;5001887;28;20062;-74
2024/01/14 09:27:58;;;;;;;11.38;6.10;;;;;;;;;;5001526;28;20053;-74
2024/01/14 09:30:23;;;;;;;13.82;6.93;;;;;;;;;;4996999;28;20034;-74
2024/01/14 09:32:49;;;;;;;12.80;6.78;;;;;;;;;;4979035;28;20106;-75
2024/01/14 09:35:14;;;;;;;10.23;6.07;;;;;;;;;;5002513;28;20041;-74
2024/01/14 09:37:39;;;;;;;11.93;6.25;;;;;;;;;;4999799;28;20491;-74
2024/01/14 09:40:05;;;;;;;10.15;5.95;;;;;;;;;;5000959;28;20122;-74
2024/01/14 09:42:35;;;;;;;10.32;5.50;;;;;;;;;;5002436;28;20027;-75
2024/01/14 09:45:01;;;;;;;8.23;4.68;;;;;;;;;;5001237;28;20113;-75
2024/01/14 09:47:26;;;;;;;9.68;4.88;;;;;;;;;;5002831;28;20554;-74
2024/01/14 09:49:58;;;;;;;10.77;5.43;;;;;;;;;;4979854;28;20121;-73
2024/01/14 09:52:24;;;;;;;8.93;4.90;;;;;;;;;;4976529;28;20038;-75
2024/01/14 09:54:49;;;;;;;11.95;6.72;;;;;;;;;;4999768;28;20030;-75
2024/01/14 09:57:17;;;;;;;8.73;5.00;;;;;;;;;;4984042;28;20037;-75
2024/01/14 09:59:42;;;;;;;12.88;5.97;;;;;;;;;;4984955;28;20026;-75
2024/01/14 10:02:08;;;;;;;9.05;5.60;;;;;;;;;;5006099;28;20449;-75
2024/01/14 10:04:33;;;;;;;9.52;5.70;;;;;;;;;;5000825;28;20034;-75
2024/01/14 10:06:58;;;;;;;10.40;5.93;;;;;;;;;;4998458;28;20026;-75
2024/01/14 10:09:24;;;;;;;11.73;6.68;;;;;;;;;;5001108;28;20096;-75
2024/01/14 10:11:49;;;;;;;15.30;6.90;;;;;;;;;;4982265;28;20498;-75
2024/01/14 10:14:15;;;;;;;14.20;7.05;;;;;;;;;;5002630;28;20066;-75
2024/01/14 10:16:40;;;;;;;12.88;6.18;;;;;;;;;;4999961;28;20111;-74
2024/01/14 10:19:06;;;;;;;11.55;5.95;;;;;;;;;;5001924;28;20037;-75
2024/01/14 10:21:31;;;;;;;11.05;6.05;;;;;;;;;;5000903;28;20034;-75
2024/01/14 10:23:57;;;;;;;12.45;6.10;;;;;;;;;;5001473;28;20410;-76
2024/01/14 10:26:23;;;;;;;11.80;6.15;;;;;;;;;;4982303;28;20062;-76
2024/01/14 10:28:48;;;;;;;11.88;6.65;;;;;;;;;;5001636;28;20041;-75
2024/01/14 10:31:13;;;;;;;13.25;7.18;;;;;;;;;;4993904;28;20109;-76
2024/01/14 10:33:38;;;;;;;12.18;6.05;;;;;;;;;;4998281;28;20030;-76
2024/01/14 10:36:10;;;;;;;8.68;4.70;;;;;;;;;;4983017;28;20038;-76
2024/01/14 10:38:35;;;;;;;10.60;5.00;;;;;;;;;;4998914;28;20548;-76
2024/01/14 10:41:01;;;;;;;11.45;5.40;;;;;;;;;;5000387;28;20031;-76
2024/01/14 10:43:26;;;;;;;11.15;5.78;;;;;;;;;;4984071;28;20109;-76
2024/01/14 10:45:52;;;;;;;10.40;4.43;;;;;;;;;;5001777;28;20034;-76
2024/01/14 10:48:24;;;;;;;10.75;5.57;;;;;;;;;;4999716;28;20030;-77
2024/01/14 10:50:52;;;;;;;9.48;4.97;;;;;;;;;;4979905;28;20026;-76
2024/01/14 10:53:24;;;;;;;7.93;4.10;;;;;;;;;;4999960;28;20031;-76
2024/01/14 10:56:00;;;;;;;8.50;4.30;;;;;;;;;;5001563;28;20104;-76
2024/01/14 10:58:36;;;;;;;10.98;4.35;;;;;;;;;;4991189;28;20045;-77
2024/01/14 11:01:06;;;;;;;10.02;4.55;;;;;;;;;;4979009;28;20122;-76
2024/01/14 11:03:33;;;;;;;7.43;3.38;;;;;;;;;;4996423;28;20030;-76
2024/01/14 11:05:58;;;;;;;7.68;3.60;;;;;;;;;;4982381;28;20034;-77
2024/01/14 11:08:23;;;;;;;11.15;3.80;;;;;;;;;;4999859;28;20031;-77
2024/01/14 11:10:49;;;;;;;7.55;3.55;;;;;;;;;;5000864;28;20062;-77
2024/01/14 11:13:22;;;;;;;6.65;3.50;;;;;;;;;;4995030;28;20461;-77
2024/01/14 11:15:57;;;;;;;10.00;3.72;;;;;;;;;;5001790;28;20026;-77
2024/01/14 11:18:40;;;;;;;7.88;3.10;;;;;;;;;;4997767;28;20048;-77
2024/01/14 11:21:26;;;;;;;8.05;3.40;;;;;;;;;;4980335;28;20030;-77
2024/01/14 11:23:51;;;;;;;8.48;4.25;;;;;;;;;;4947623;28;20120;-77
2024/01/14 11:26:16;;;;;;;6.57;3.75;;;;;;;;;;4998342;28;20112;-77
2024/01/14 11:28:45;;;;;;;8.50;3.80;;;;;;;;;;5000593;28;20044;-76
2024/01/14 11:31:10;;;;;;;11.98;4.93;;;;;;;;;;4999791;28;20609;-77
2024/01/14 11:33:46;;;;;;;10.15;4.70;;;;;;;;;;5000828;28;20101;-77
2024/01/14 11:36:11;;;;;;;7.05;4.32;;;;;;;;;;4979954;28;20788;-77
2024/01/14 11:38:45;;;;;;;8.05;4.20;;;;;;;;;;5001133;28;20042;-77
2024/01/14 11:41:29;;;;;;;9.48;4.63;;;;;;;;;;4994478;28;20518;-77
2024/01/14 11:44:04;;;;;;;13.48;5.15;;;;;;;;;;4998991;28;20084;-77
2024/01/14 11:46:38;;;;;;;8.48;4.78;;;;;;;;;;4970005;28;20126;-77
2024/01/14 11:49:06;;;;;;;11.48;6.05;;;;;;;;;;4999200;28;20036;-76
2024/01/14 11:51:34;;;;;;;10.45;5.50;;;;;;;;;;4998619;28;20471;-77
2024/01/14 11:54:04;;;;;;;7.93;5.22;;;;;;;;;;4998030;28;20041;-77
2024/01/14 11:56:30;;;;;;;11.43;6.40;;;;;;;;;;4997671;28;20037;-77
2024/01/14 11:58:58;;;;;;;11.10;5.85;;;;;;;;;;4996683;28;20041;-77
2024/01/14 12:01:23;;;;;;;11.50;5.80;;;;;;;;;;4998419;28;20373;-78
2024/01/14 12:04:02;;;;;;;10.52;6.28;;;;;;;;;;4980793;28;20105;-77
2024/01/14 12:06:27;;;;;;;12.43;6.07;;;;;;;;;;4999817;28;20039;-76
2024/01/14 12:08:59;;;;;;;9.70;5.13;;;;;;;;;;4997002;28;20088;-76
2024/01/14 12:11:24;;;;;;;12.70;4.85;;;;;;;;;;4998004;28;20822;-76
2024/01/14 12:13:50;;;;;;;11.20;5.15;;;;;;;;;;5001427;28;20091;-77
2024/01/14 12:16:15;;;;;;;8.38;4.60;;;;;;;;;;4978943;28;20026;-78
2024/01/14 12:18:41;;;;;;;9.55;5.45;;;;;;;;;;5000147;28;20033;-77
2024/01/14 12:21:06;;;;;;;14.43;5.05;;;;;;;;;;4998198;28;20034;-77
2024/01/14 12:23:31;;;;;;;11.88;5.82;;;;;;;;;;4995488;28;20506;-77
2024/01/14 12:26:03;;;;;;;9.90;6.05;;;;;;;;;;5001489;28;20037;-77
2024/01/14 12:28:28;;;;;;;11.57;5.77;;;;;;;;;;4996124;28;20400;-78
2024/01/14 12:30:56;;;;;;;9.48;5.03;;;;;;;;;;5000535;28;20030;-76
2024/01/14 12:33:22;;;;;;;10.88;6.15;;;;;;;;;;4997645;28;20030;-77
2024/01/14 12:35:47;;;;;;;9.60;5.88;;;;;;;;;;4988344;28;20501;-77
2024/01/14 12:38:12;;;;;;;9.23;5.93;;;;;;;;;;4994527;28;20034;-77
2024/01/14 12:40:37;;;;;;;10.10;5.97;;;;;;;;;;4988941;28;20038;-78
2024/01/14 12:43:04;;;;;;;10.32;6.10;;;;;;;;;;4984267;28;20021;-77
2024/01/14 12:45:30;;;;;;;11.75;6.40;;;;;;;;;;4984848;28;20543;-76
2024/01/14 12:47:56;;;;;;;11.98;6.35;;;;;;;;;;5003753;28;20018;-77
2024/01/14 12:50:21;;;;;;;13.95;7.30;;;;;;;;;;4995945;28;20030;-77
2024/01/14 12:52:46;;;;;;;9.95;5.93;;;;;;;;;;5000880;28;20037;-77
2024/01/14 12:55:19;;;;;;;12.20;5.93;;;;;;;;;;5002209;28;20622;-76
2024/01/14 12:57:45;;;;;;;11.82;5.82;;;;;;;;;;4999560;28;20109;-76
2024/01/14 13:00:10;;;;;;;9.60;5.38;;;;;;;;;;5001356;28;20455;-77
2024/01/14 13:02:35;;;;;;;11.50;6.60;;;;;;;;;;5001261;28;20058;-77
2024/01/14 13:05:01;;;;;;;10.50;5.85;;;;;;;;;;5000223;28;20038;-76
2024/01/14 13:07:26;;;;;;;11.18;6.13;;;;;;;;;;5000770;28;20022;-77
2024/01/14 13:09:51;;;;;;;9.82;5.45;;;;;;;;;;5004604;28;20025;-77
2024/01/14 13:12:16;;;;;;;11.18;6.38;;;;;;;;;;5000746;28;20034;-76
2024/01/14 13:14:41;;;;;;;13.50;6.13;;;;;;;;;;4983163;28;20095;-77
2024/01/14 13:17:06;;;;;;;10.63;5.90;;;;;;;;;;5002758;28;20041;-77
2024/01/14 13:19:32;;;;;;;10.23;5.15;;;;;;;;;;5000976;28;20026;-77
2024/01/14 13:21:57;;;;;;;8.82;5.65;;;;;;;;;;5003974;28;20034;-77
2024/01/14 13:24:22;;;;;;;10.52;5.25;;;;;;;;;;4999985;28;20033;-77
2024/01/14 13:26:47;;;;;;;10.60;5.35;;;;;;;;;;5002662;28;20030;-77
2024/01/14 13:29:12;;;;;;;9.13;5.15;;;;;;;;;;4996285;28;20045;-78
2024/01/14 13:31:38;;;;;;;11.70;5.13;;;;;;;;;;5001146;28;20037;-78
2024/01/14 13:34:04;;;;;;;10.63;5.75;;;;;;;;;;4985232;28;20040;-77
2024/01/14 13:36:29;;;;;;;9.57;5.53;;;;;;;;;;4980824;28;20426;-77
2024/01/14 13:39:00;;;;;;;9.45;5.75;;;;;;;;;;5000846;28;20084;-77
2024/01/14 13:41:26;;;;;;;12.18;5.72;;;;;;;;;;5002186;28;20027;-77
2024/01/14 13:43:51;;;;;;;10.75;5.63;;;;;;;;;;4983419;28;20462;-77
2024/01/14 13:46:16;;;;;;;10.50;5.65;;;;;;;;;;4981959;28;20026;-79
2024/01/14 13:48:41;;;;;;;9.02;4.88;;;;;;;;;;4968811;28;20025;-77
2024/01/14 13:51:06;;;;;;;11.98;5.50;;;;;;;;;;5000698;28;20487;-78
2024/01/14 13:53:31;;;;;;;10.68;5.88;;;;;;;;;;5000409;28;20022;-78
2024/01/14 13:55:57;;;;;;;11.73;5.72;;;;;;;;;;4999669;28;20056;-78
2024/01/14 13:58:22;;;;;;;9.45;5.63;;;;;;;;;;4996693;28;20034;-78
2024/01/14 14:00:47;;;;;;;11.77;5.38;;;;;;;;;;5001065;28;20045;-78
2024/01/14 14:03:12;;;;;;;13.20;5.47;;;;;;;;;;4980553;28;20111;-77
2024/01/14 14:05:37;;;;;;;10.45;6.57;;;;;;;;;;5002150;28;20049;-76
2024/01/14 14:08:03;;;;;;;9.07;5.65;;;;;;;;;;4980172;28;20068;-76
2024/01/14 14:10:28;;;;;;;10.20;6.38;;;;;;;;;;5001640;28;20157;-76
2024/01/14 14:12:53;;;;;;;9.73;5.50;;;;;;;;;;4997434;28;20061;-76
2024/01/14 14:15:18;;;;;;;8.90;5.82;;;;;;;;;;5001413;28;20498;-77
2024/01/14 14:17:43;;;;;;;9.95;5.57;;;;;;;;;;5000556;28;20050;-76
2024/01/14 14:20:09;;;;;;;9.95;5.13;;;;;;;;;;5001589;28;20037;-79
2024/01/14 14:22:34;;;;;;;10.85;6.07;;;;;;;;;;5000726;28;20037;-80